Time;durP1;ratioP1;P1;durP2;ratioP2;P2;SDS_P1;SDS_P2;PMS_P1;PMS_P2;Temp;Humidity;BMP_temperature;BMP_pressure;BME280_temperature;BME280_humidity;BME280_pressure;Samples;Min_cycle;Max_cycle;Signal;HPM_P1;HPM_P2
2022/05/13 00:00:58;;;;;;;8.75;6.75;;;20.70;99.90;;;;;;4998406;28;20038;-79
2022/05/13 00:03:23;;;;;;;10.45;6.60;;;20.60;99.90;;;;;;5000700;28;20486;-79
2022/05/13 00:05:50;;;;;;;11.27;6.90;;;20.60;99.90;;;;;;4995064;28;20039;-79
2022/05/13 00:08:16;;;;;;;9.98;6.70;;;20.60;99.90;;;;;;4998082;28;20022;-80
2022/05/13 00:10:43;;;;;;;15.75;8.18;;;20.60;99.90;;;;;;4998259;28;20035;-79
2022/05/13 00:13:09;;;;;;;10.77;7.28;;;20.60;99.90;;;;;;5002793;28;20036;-80
2022/05/13 00:15:35;;;;;;;11.82;8.18;;;20.60;99.90;;;;;;4994177;28;20062;-79
2022/05/13 00:18:01;;;;;;;12.93;7.00;;;20.50;99.90;;;;;;4996692;28;20031;-77
2022/05/13 00:20:27;;;;;;;10.63;7.32;;;20.50;99.90;;;;;;5008526;28;20099;-77
2022/05/13 00:22:56;;;;;;;8.38;6.28;;;20.60;99.90;;;;;;4996560;28;20021;-78
2022/05/13 00:25:28;;;;;;;10.98;6.45;;;20.60;99.90;;;;;;4994313;28;20041;-81
2022/05/13 00:27:55;;;;;;;9.63;6.38;;;20.70;99.90;;;;;;4992042;28;20085;-80
2022/05/13 00:30:21;;;;;;;10.30;6.60;;;20.70;99.90;;;;;;4984753;28;20046;-79
2022/05/13 00:32:49;;;;;;;9.70;6.53;;;20.70;99.90;;;;;;4991380;28;20045;-79
2022/05/13 00:35:16;;;;;;;10.98;7.20;;;20.70;99.90;;;;;;4997616;28;20031;-79
2022/05/13 00:37:42;;;;;;;10.38;6.15;;;20.80;99.90;;;;;;4988420;28;20034;-79
2022/05/13 00:40:09;;;;;;;18.13;6.57;;;20.80;99.90;;;;;;5004076;28;20018;-79
2022/05/13 00:42:35;;;;;;;13.38;5.05;;;20.80;99.90;;;;;;5001324;28;20394;-80
2022/05/13 00:45:00;;;;;;;10.85;4.63;;;20.70;99.90;;;;;;4981510;28;20010;-80
2022/05/13 00:47:27;;;;;;;10.40;4.03;;;20.60;99.90;;;;;;4987142;28;20034;-81
2022/05/13 00:49:55;;;;;;;10.00;4.50;;;20.50;99.90;;;;;;4984825;28;20027;-78
2022/05/13 00:52:21;;;;;;;4.97;3.85;;;20.30;99.90;;;;;;4993236;28;20038;-80
2022/05/13 00:54:47;;;;;;;5.53;4.00;;;20.20;99.90;;;;;;4981439;28;20073;-80
2022/05/13 00:57:14;;;;;;;10.23;4.60;;;20.00;99.90;;;;;;4981456;28;20086;-79
2022/05/13 00:59:44;;;;;;;10.70;4.78;;;19.90;99.90;;;;;;4996853;28;20050;-80
2022/05/13 01:02:11;;;;;;;9.93;4.80;;;19.70;99.90;;;;;;4988214;28;20062;-79
2022/05/13 01:04:38;;;;;;;9.00;4.40;;;19.50;99.90;;;;;;4992425;28;20045;-78
2022/05/13 01:07:11;;;;;;;7.93;4.45;;;19.40;99.90;;;;;;4990591;28;20677;-78
2022/05/13 01:09:46;;;;;;;12.68;4.97;;;19.30;99.90;;;;;;4990523;28;20035;-79
2022/05/13 01:12:16;;;;;;;6.40;4.30;;;19.20;99.90;;;;;;5005088;28;20034;-79
2022/05/13 01:14:53;;;;;;;6.47;3.63;;;19.10;99.90;;;;;;4990689;28;20027;-79
2022/05/13 01:20:13;;;;;;;8.00;4.07;;;18.90;99.90;;;;;;4959841;29;20472;-80
2022/05/13 01:22:43;;;;;;;7.78;3.90;;;18.80;99.90;;;;;;4959905;28;20023;-80
2022/05/13 01:25:10;;;;;;;9.18;3.63;;;18.70;99.90;;;;;;4975989;28;20092;-79
2022/05/13 01:27:36;;;;;;;17.80;4.45;;;18.50;99.90;;;;;;4984485;28;20661;-81
2022/05/13 01:30:04;;;;;;;7.93;4.68;;;18.40;99.90;;;;;;5006782;28;20053;-79
2022/05/13 01:32:30;;;;;;;6.95;4.47;;;18.20;99.90;;;;;;5001113;28;20022;-78
2022/05/13 01:34:56;;;;;;;8.85;4.53;;;18.00;99.90;;;;;;4998022;28;20101;-79
2022/05/13 01:37:22;;;;;;;9.10;4.32;;;18.00;99.90;;;;;;4986082;28;20061;-79
2022/05/13 01:39:48;;;;;;;10.38;5.07;;;17.90;99.90;;;;;;4983832;28;20030;-79
2022/05/13 01:42:13;;;;;;;11.85;5.15;;;17.80;99.90;;;;;;4993399;28;20363;-80
2022/05/13 01:44:39;;;;;;;11.85;5.53;;;17.70;99.90;;;;;;4999606;28;20093;-80
2022/05/13 01:47:05;;;;;;;7.30;3.95;;;17.50;99.90;;;;;;4967167;28;20023;-79
2022/05/13 01:49:30;;;;;;;7.38;3.80;;;17.30;99.90;;;;;;4988127;28;20038;-80
2022/05/13 01:51:56;;;;;;;7.15;3.50;;;17.20;99.90;;;;;;4979294;28;20027;-78
2022/05/13 01:54:22;;;;;;;9.32;3.58;;;17.10;99.90;;;;;;4990179;28;20100;-78
2022/05/13 01:56:48;;;;;;;16.13;4.95;;;17.20;99.90;;;;;;4993565;28;20029;-79
2022/05/13 01:59:14;;;;;;;9.80;4.03;;;17.10;99.90;;;;;;4990930;28;20110;-77
2022/05/13 02:01:40;;;;;;;12.27;4.57;;;17.10;99.90;;;;;;4988983;28;20030;-80
2022/05/13 02:04:05;;;;;;;13.18;4.32;;;17.10;99.90;;;;;;4986991;28;20023;-81
2022/05/13 02:06:31;;;;;;;7.80;4.30;;;17.00;99.90;;;;;;4956107;28;20102;-77
2022/05/13 02:08:58;;;;;;;7.57;4.50;;;16.90;99.90;;;;;;4989342;28;20122;-79
2022/05/13 02:11:27;;;;;;;10.95;4.60;;;16.90;99.90;;;;;;4986764;28;20037;-80
2022/05/13 02:13:53;;;;;;;8.77;5.00;;;16.80;99.90;;;;;;5005086;28;20023;-78
2022/05/13 02:16:20;;;;;;;12.32;4.95;;;16.80;99.90;;;;;;4994752;28;20023;-79
2022/05/13 02:18:46;;;;;;;13.90;4.82;;;16.80;99.90;;;;;;5006751;28;20034;-78
2022/05/13 02:21:13;;;;;;;10.38;4.65;;;16.90;99.90;;;;;;5011670;28;20022;-77
2022/05/13 02:23:38;;;;;;;9.95;4.65;;;16.90;99.90;;;;;;5006675;28;20497;-78
2022/05/13 02:26:07;;;;;;;11.35;4.57;;;16.90;99.90;;;;;;4994243;28;20018;-78
2022/05/13 02:28:34;;;;;;;7.82;4.60;;;17.00;99.90;;;;;;4990463;28;20094;-78
2022/05/13 02:31:00;;;;;;;9.80;4.70;;;17.00;99.90;;;;;;4959895;29;20023;-77
2022/05/13 02:33:27;;;;;;;9.82;4.50;;;17.00;99.90;;;;;;4962584;29;20082;-78
2022/05/13 02:35:53;;;;;;;8.20;4.45;;;17.00;99.90;;;;;;4989389;28;20505;-77
2022/05/13 02:38:19;;;;;;;8.73;4.43;;;17.00;99.90;;;;;;4982712;28;20531;-78
2022/05/13 02:43:30;;;;;;;9.60;5.10;;;17.10;99.90;;;;;;4986485;28;20174;-78
2022/05/13 02:45:57;;;;;;;15.52;4.82;;;17.10;99.90;;;;;;4987790;28;20037;-78
2022/05/13 02:48:23;;;;;;;10.32;4.55;;;17.10;99.90;;;;;;4980874;28;20030;-80
2022/05/13 02:50:49;;;;;;;10.18;5.03;;;17.10;99.90;;;;;;4975963;28;20043;-77
2022/05/13 02:53:14;;;;;;;14.88;4.88;;;17.10;99.90;;;;;;4990005;28;20114;-78
2022/05/13 02:55:41;;;;;;;9.35;4.93;;;17.10;99.90;;;;;;4990745;28;20038;-80
2022/05/13 02:58:07;;;;;;;11.88;4.82;;;17.10;99.90;;;;;;4989348;28;20045;-80
2022/05/13 03:00:34;;;;;;;10.98;4.80;;;17.00;99.90;;;;;;4995541;28;20098;-80
2022/05/13 03:03:00;;;;;;;7.93;4.32;;;17.10;99.90;;;;;;4977373;28;20080;-80
2022/05/13 03:05:26;;;;;;;13.45;4.50;;;17.10;99.90;;;;;;4986086;28;20125;-79
2022/05/13 03:07:53;;;;;;;12.55;4.97;;;17.20;99.90;;;;;;5030823;23;20054;-84
2022/05/13 03:10:19;;;;;;;7.43;4.72;;;17.20;99.90;;;;;;5010450;28;20082;-85
2022/05/13 03:12:45;;;;;;;9.60;4.18;;;17.20;99.90;;;;;;5006028;28;20030;-84
2022/05/13 03:15:12;;;;;;;7.63;3.78;;;17.20;99.90;;;;;;5004179;28;20033;-83
2022/05/13 03:17:39;;;;;;;7.68;4.10;;;17.20;99.90;;;;;;5003969;28;20478;-85
2022/05/13 03:20:08;;;;;;;10.90;4.28;;;17.20;99.90;;;;;;5003602;28;20069;-84
2022/05/13 03:22:34;;;;;;;7.55;4.07;;;17.10;99.90;;;;;;5002112;28;20389;-83
2022/05/13 03:25:00;;;;;;;8.45;3.72;;;17.10;99.90;;;;;;4996310;28;20042;-84
2022/05/13 03:27:26;;;;;;;10.55;4.15;;;17.10;99.90;;;;;;5002191;28;20034;-85
2022/05/13 03:29:52;;;;;;;7.15;3.90;;;17.00;99.90;;;;;;5004741;28;20086;-85
2022/05/13 03:32:18;;;;;;;6.72;3.47;;;17.10;99.90;;;;;;5001155;28;20034;-85
2022/05/13 03:34:44;;;;;;;6.30;3.50;;;17.10;99.90;;;;;;5000921;28;20046;-85
2022/05/13 03:37:10;;;;;;;5.75;3.55;;;17.10;99.90;;;;;;5003803;28;20006;-85
2022/05/13 03:39:36;;;;;;;11.65;3.90;;;17.10;99.90;;;;;;5004085;28;20022;-85
2022/05/13 03:42:03;;;;;;;12.13;3.80;;;17.10;99.90;;;;;;4999403;28;20061;-84
2022/05/13 03:44:30;;;;;;;8.15;3.80;;;17.10;99.90;;;;;;5002651;28;20022;-85
2022/05/13 03:46:55;;;;;;;6.07;3.97;;;17.10;99.90;;;;;;5005434;28;20045;-84
2022/05/13 03:49:21;;;;;;;8.18;4.05;;;17.10;99.90;;;;;;5013156;28;20035;-83
2022/05/13 03:51:47;;;;;;;8.25;4.55;;;17.10;99.90;;;;;;5010403;28;20502;-82
2022/05/13 03:54:13;;;;;;;4.25;3.10;;;17.10;99.90;;;;;;5014370;28;20030;-83
2022/05/13 03:56:39;;;;;;;6.80;3.50;;;17.20;99.90;;;;;;5011173;28;20038;-83
2022/05/13 03:59:04;;;;;;;12.82;3.67;;;17.20;99.90;;;;;;5014182;28;20045;-82
2022/05/13 04:01:30;;;;;;;7.00;3.72;;;17.20;99.90;;;;;;5014174;28;20030;-84
2022/05/13 04:03:56;;;;;;;5.65;3.17;;;17.20;99.90;;;;;;5013952;28;20049;-84
2022/05/13 04:09:07;;;;;;;8.43;3.72;;;17.30;99.90;;;;;;5013880;28;20029;-83
2022/05/13 04:11:38;;;;;;;7.38;3.50;;;17.30;99.90;;;;;;5015589;28;20031;-85
2022/05/13 04:16:55;;;;;;;7.68;3.75;;;17.40;99.90;;;;;;5016835;28;20041;-87
2022/05/13 04:19:21;;;;;;;6.85;3.78;;;17.30;99.90;;;;;;5018036;28;20011;-88
2022/05/13 04:21:47;;;;;;;4.32;3.42;;;17.30;99.90;;;;;;5015824;28;20126;-84
2022/05/13 04:24:17;;;;;;;7.40;3.20;;;17.40;99.90;;;;;;4999782;28;20022;-88
2022/05/13 04:26:44;;;;;;;5.95;3.22;;;17.40;99.90;;;;;;5016458;28;20434;-89
2022/05/13 04:29:10;;;;;;;5.50;3.20;;;17.40;99.90;;;;;;5017196;28;20031;-88
2022/05/13 04:31:39;;;;;;;6.75;3.15;;;17.40;99.90;;;;;;5016208;28;20055;-87
2022/05/13 04:34:06;;;;;;;5.30;3.10;;;17.50;99.90;;;;;;5020389;28;20022;-88
2022/05/13 04:36:32;;;;;;;5.57;3.58;;;17.50;99.90;;;;;;5019248;28;20061;-88
2022/05/13 04:38:58;;;;;;;5.32;2.67;;;17.50;99.90;;;;;;5019963;28;20069;-89
2022/05/13 04:44:11;;;;;;;10.30;3.13;;;17.50;99.90;;;;;;5012720;28;20045;-87
2022/05/13 04:46:38;;;;;;;4.65;3.10;;;17.40;99.90;;;;;;5003328;28;20062;-88
2022/05/13 04:49:05;;;;;;;7.22;3.58;;;17.40;99.90;;;;;;5015485;28;20034;-88
2022/05/13 04:51:31;;;;;;;4.35;3.05;;;17.40;99.90;;;;;;5017467;28;20033;-85
2022/05/13 04:53:58;;;;;;;4.15;2.70;;;17.40;99.90;;;;;;5016574;28;20034;-85
2022/05/13 04:56:25;;;;;;;7.80;3.28;;;17.40;99.90;;;;;;5018097;28;20019;-84
2022/05/13 04:58:51;;;;;;;5.47;3.05;;;17.40;99.90;;;;;;5018758;28;20057;-84
2022/05/13 05:01:19;;;;;;;4.57;3.22;;;17.40;99.90;;;;;;5033346;28;20045;-87
2022/05/13 05:03:45;;;;;;;9.10;3.67;;;17.60;99.90;;;;;;5015825;28;20030;-88
2022/05/13 05:06:12;;;;;;;7.10;3.10;;;17.60;99.90;;;;;;5012612;28;20023;-86
2022/05/13 05:08:39;;;;;;;9.10;2.97;;;17.70;99.90;;;;;;5014521;28;20102;-85
2022/05/13 05:11:07;;;;;;;6.72;3.38;;;17.70;99.90;;;;;;5015843;28;20740;-85
2022/05/13 05:13:41;;;;;;;10.80;3.20;;;17.80;99.90;;;;;;4998600;28;20030;-86
2022/05/13 05:16:08;;;;;;;6.72;3.30;;;17.80;99.90;;;;;;5014114;28;20100;-84
2022/05/13 05:18:39;;;;;;;5.97;3.75;;;17.80;99.90;;;;;;4997462;28;20050;-85
2022/05/13 05:21:06;;;;;;;8.27;3.60;;;17.80;99.90;;;;;;4999983;28;20042;-85
2022/05/13 05:23:34;;;;;;;5.15;3.70;;;17.80;99.90;;;;;;5015747;28;20026;-84
2022/05/13 05:26:00;;;;;;;5.75;3.40;;;17.80;99.90;;;;;;5015800;28;20049;-84
2022/05/13 05:28:27;;;;;;;5.65;3.90;;;17.80;99.90;;;;;;5013957;28;20029;-83
2022/05/13 05:30:55;;;;;;;5.38;3.67;;;17.80;99.90;;;;;;5017486;28;20057;-83
2022/05/13 05:33:21;;;;;;;10.55;3.35;;;17.90;99.90;;;;;;5016646;28;20032;-84
2022/05/13 05:35:47;;;;;;;4.90;3.08;;;17.80;99.90;;;;;;5014921;28;20038;-82
2022/05/13 05:38:13;;;;;;;5.63;3.33;;;17.80;99.90;;;;;;5013609;28;20026;-82
2022/05/13 05:40:39;;;;;;;4.75;3.97;;;17.80;99.90;;;;;;5013323;28;20030;-82
2022/05/13 05:43:08;;;;;;;6.32;4.85;;;17.80;99.90;;;;;;5012997;28;20026;-82
2022/05/13 05:45:37;;;;;;;4.75;3.58;;;17.90;99.90;;;;;;5014255;28;20049;-83
2022/05/13 05:48:08;;;;;;;7.03;3.80;;;17.90;99.90;;;;;;5013014;28;20034;-83
2022/05/13 05:50:34;;;;;;;8.75;5.18;;;18.00;99.90;;;;;;5012229;28;20018;-83
2022/05/13 05:53:01;;;;;;;9.55;4.70;;;17.90;99.90;;;;;;5012808;28;20033;-85
2022/05/13 05:58:15;;;;;;;8.80;4.35;;;18.10;99.90;;;;;;5012866;28;20181;-85
2022/05/13 06:00:43;;;;;;;7.55;3.80;;;18.20;99.90;;;;;;5011984;28;20030;-84
2022/05/13 06:03:10;;;;;;;6.07;3.38;;;18.30;99.90;;;;;;5014178;28;20099;-83
2022/05/13 06:05:36;;;;;;;6.53;3.53;;;18.40;99.90;;;;;;5014003;28;20034;-84
2022/05/13 06:08:04;;;;;;;9.95;3.85;;;18.50;99.90;;;;;;5013387;28;20038;-86
2022/05/13 06:10:31;;;;;;;5.95;3.50;;;18.60;99.90;;;;;;5011176;28;20038;-84
2022/05/13 06:12:57;;;;;;;6.07;4.10;;;18.80;99.90;;;;;;5010647;28;20026;-85
2022/05/13 06:15:24;;;;;;;6.68;3.70;;;18.80;99.90;;;;;;5017478;28;20121;-83
2022/05/13 06:17:53;;;;;;;7.15;4.35;;;18.90;99.90;;;;;;5018062;28;20041;-85
2022/05/13 06:20:22;;;;;;;6.30;4.03;;;18.90;99.90;;;;;;5001352;28;20022;-83
2022/05/13 06:22:48;;;;;;;6.05;3.88;;;19.00;99.90;;;;;;5017531;28;20053;-83
2022/05/13 06:25:16;;;;;;;6.90;4.43;;;19.00;99.90;;;;;;5017199;28;20021;-84
2022/05/13 06:27:44;;;;;;;6.65;4.68;;;19.10;99.90;;;;;;5015997;28;20038;-86
2022/05/13 06:30:14;;;;;;;7.03;4.50;;;19.20;99.90;;;;;;5017169;28;20057;-83
2022/05/13 06:32:41;;;;;;;10.10;5.30;;;19.20;99.90;;;;;;5017705;28;20022;-84
2022/05/13 06:35:08;;;;;;;5.22;4.30;;;19.10;99.90;;;;;;5017902;28;20010;-86
2022/05/13 06:37:34;;;;;;;5.97;4.07;;;19.20;99.90;;;;;;5017660;28;20035;-84
2022/05/13 06:39:59;;;;;;;7.50;4.10;;;19.30;99.90;;;;;;5018802;28;20042;-85
2022/05/13 06:42:25;;;;;;;9.88;5.78;;;19.40;99.90;;;;;;5018534;28;20053;-85
2022/05/13 06:44:51;;;;;;;7.53;4.25;;;19.40;99.90;;;;;;5018346;28;20258;-84
2022/05/13 06:47:17;;;;;;;8.55;4.70;;;19.50;99.90;;;;;;5017286;28;20026;-84
2022/05/13 06:49:42;;;;;;;8.73;5.18;;;19.50;99.90;;;;;;5013038;28;20101;-85
2022/05/13 06:52:13;;;;;;;7.38;4.00;;;19.50;99.90;;;;;;5008436;28;20028;-85
2022/05/13 06:54:42;;;;;;;6.50;4.57;;;19.50;99.90;;;;;;5009384;28;20038;-86
2022/05/13 06:57:10;;;;;;;7.35;3.95;;;19.50;99.90;;;;;;5007110;28;20029;-85
2022/05/13 06:59:36;;;;;;;10.95;4.07;;;19.70;99.90;;;;;;5008703;28;20030;-85
2022/05/13 07:02:03;;;;;;;9.18;4.40;;;19.80;99.90;;;;;;5009820;28;20014;-86
2022/05/13 07:04:28;;;;;;;13.13;3.88;;;20.00;99.90;;;;;;5010716;28;20098;-85
2022/05/13 07:06:54;;;;;;;8.32;4.00;;;20.20;99.90;;;;;;5008479;28;20402;-85
2022/05/13 07:09:20;;;;;;;12.25;4.72;;;20.20;99.90;;;;;;5012519;28;20034;-85
2022/05/13 07:11:46;;;;;;;10.98;4.28;;;20.20;99.90;;;;;;5016693;28;20022;-85
2022/05/13 07:14:12;;;;;;;16.55;4.80;;;20.20;99.90;;;;;;5018264;28;20022;-84
2022/05/13 07:16:38;;;;;;;10.75;4.03;;;20.00;99.90;;;;;;5017935;28;20134;-86
2022/05/13 07:19:05;;;;;;;7.07;4.00;;;19.80;99.90;;;;;;5017320;28;20022;-83
2022/05/13 07:21:31;;;;;;;10.68;3.78;;;19.70;99.90;;;;;;5017062;28;20050;-86
2022/05/13 07:23:57;;;;;;;9.07;4.22;;;19.60;99.90;;;;;;5017540;28;20117;-84
2022/05/13 07:26:23;;;;;;;6.65;3.95;;;19.50;99.90;;;;;;5016551;28;20087;-85
2022/05/13 07:28:48;;;;;;;6.15;3.70;;;19.50;99.90;;;;;;5017828;28;20046;-86
2022/05/13 07:31:14;;;;;;;12.38;3.88;;;19.50;99.90;;;;;;5017639;28;20023;-84
2022/05/13 07:33:40;;;;;;;4.65;4.07;;;19.50;99.90;;;;;;5016865;28;20046;-85
2022/05/13 07:36:06;;;;;;;10.18;4.18;;;19.40;99.90;;;;;;5017699;28;20039;-84
2022/05/13 07:38:34;;;;;;;10.10;4.00;;;19.40;99.90;;;;;;5016064;28;20022;-84
2022/05/13 07:41:18;;;;;;;7.00;4.00;;;19.30;99.90;;;;;;4995197;28;20094;-86
2022/05/13 07:43:45;;;;;;;7.00;3.90;;;19.30;99.90;;;;;;5009162;28;20177;-85
2022/05/13 07:46:12;;;;;;;8.10;4.13;;;19.30;99.90;;;;;;5008861;28;20453;-85
2022/05/13 07:48:39;;;;;;;6.65;4.75;;;19.10;99.90;;;;;;5008336;28;20037;-87
2022/05/13 07:51:06;;;;;;;9.98;4.53;;;19.00;99.90;;;;;;5008788;28;20122;-88
2022/05/13 07:53:32;;;;;;;11.45;4.88;;;18.90;99.90;;;;;;5011203;28;20045;-88
2022/05/13 07:55:59;;;;;;;8.60;4.78;;;18.70;99.90;;;;;;5010873;28;20029;-89
2022/05/13 07:58:25;;;;;;;6.47;4.55;;;18.40;99.90;;;;;;5011469;28;20034;-85
2022/05/13 08:00:51;;;;;;;13.50;6.38;;;18.30;99.90;;;;;;5014602;28;20017;-87
2022/05/13 08:03:17;;;;;;;6.80;4.97;;;18.20;99.90;;;;;;5014924;28;20018;-86
2022/05/13 08:05:57;;;;;;;16.60;7.88;;;18.20;99.90;;;;;;5011859;28;20045;-88
2022/05/13 08:08:30;;;;;;;9.57;5.57;;;18.30;99.90;;;;;;5020780;28;20054;-88
2022/05/13 08:11:00;;;;;;;13.23;5.57;;;18.40;99.90;;;;;;5020379;28;20053;-88
2022/05/13 08:13:30;;;;;;;14.30;5.50;;;18.50;99.90;;;;;;5018905;28;20042;-88
2022/05/13 08:16:01;;;;;;;6.43;4.93;;;18.60;99.90;;;;;;4998429;28;20030;-86
2022/05/13 08:18:27;;;;;;;8.18;5.03;;;18.70;99.90;;;;;;5008932;28;20033;-88
2022/05/13 08:20:53;;;;;;;7.30;4.85;;;18.70;99.90;;;;;;5012656;28;20053;-88
2022/05/13 08:23:19;;;;;;;6.28;4.15;;;18.70;99.90;;;;;;5017251;28;20024;-89
2022/05/13 08:25:46;;;;;;;7.53;4.97;;;18.60;99.90;;;;;;5017107;28;20070;-86
2022/05/13 08:28:13;;;;;;;7.63;4.70;;;18.70;99.90;;;;;;5015837;28;20057;-88
2022/05/13 08:30:40;;;;;;;8.32;4.70;;;18.80;99.90;;;;;;5003588;28;20021;-87
2022/05/13 08:33:08;;;;;;;14.43;4.95;;;18.80;99.90;;;;;;5019533;28;20068;-86
2022/05/13 08:35:40;;;;;;;6.80;4.97;;;18.80;99.90;;;;;;5016975;28;20064;-86
2022/05/13 08:38:06;;;;;;;7.28;4.38;;;18.90;99.90;;;;;;5019584;28;20038;-86
2022/05/13 08:40:52;;;;;;;7.80;4.97;;;19.00;99.90;;;;;;5018955;28;20081;-85
2022/05/13 08:43:24;;;;;;;5.43;4.20;;;19.20;99.90;;;;;;5013234;28;20010;-87
2022/05/13 08:45:57;;;;;;;9.30;4.00;;;19.50;99.90;;;;;;5008960;28;20509;-86
2022/05/13 08:48:38;;;;;;;9.65;3.63;;;19.80;99.90;;;;;;5007438;28;20030;-87
2022/05/13 08:51:21;;;;;;;9.48;3.25;;;20.10;99.90;;;;;;5017236;28;20037;-89
2022/05/13 08:54:14;;;;;;;6.55;3.38;;;20.60;99.90;;;;;;5016655;28;20053;-87
2022/05/13 08:56:45;;;;;;;5.30;2.42;;;21.20;99.90;;;;;;5017001;28;20026;-86
2022/05/13 08:59:34;;;;;;;5.88;3.08;;;21.70;99.90;;;;;;5018705;28;20026;-87
2022/05/13 09:02:07;;;;;;;4.32;2.70;;;22.10;99.90;;;;;;5017893;28;20014;-86
2022/05/13 09:04:38;;;;;;;7.07;2.67;;;22.70;99.90;;;;;;5019085;28;20038;-88
2022/05/13 09:07:13;;;;;;;3.63;2.30;;;22.90;99.90;;;;;;5037060;23;20062;-86
2022/05/13 09:09:42;;;;;;;8.27;2.75;;;23.00;99.90;;;;;;5008619;28;20040;-87
2022/05/13 09:12:30;;;;;;;3.10;2.03;;;23.10;99.90;;;;;;5005611;28;20023;-86
2022/05/13 09:15:37;;;;;;;2.63;2.17;;;23.50;99.90;;;;;;5002793;28;20050;-87
2022/05/13 09:18:15;;;;;;;4.47;2.20;;;23.70;99.90;;;;;;4877083;29;20564;-88
2022/05/13 09:20:47;;;;;;;4.25;2.25;;;23.80;99.90;;;;;;4968470;28;20411;-87
2022/05/13 09:23:14;;;;;;;5.28;2.20;;;24.00;99.90;;;;;;4973751;29;20029;-85
2022/05/13 09:26:03;;;;;;;2.33;2.10;;;24.10;99.90;;;;;;4979135;28;20034;-85
2022/05/13 09:28:32;;;;;;;5.90;2.42;;;24.00;99.90;;;;;;4980895;28;20022;-85
2022/05/13 09:31:21;;;;;;;3.92;2.50;;;24.10;99.90;;;;;;4982632;28;20023;-88
2022/05/13 09:33:49;;;;;;;5.40;2.47;;;24.30;99.90;;;;;;4964893;28;20043;-86
2022/05/13 09:36:24;;;;;;;4.78;2.85;;;24.40;99.90;;;;;;4987129;28;20380;-85
2022/05/13 09:38:53;;;;;;;3.50;2.75;;;24.40;99.90;;;;;;4972348;28;20439;-86
2022/05/13 09:41:31;;;;;;;2.78;2.42;;;24.60;99.90;;;;;;4979075;28;20019;-87
2022/05/13 09:44:09;;;;;;;3.53;2.22;;;25.10;99.90;;;;;;4976698;28;20062;-87
2022/05/13 09:46:44;;;;;;;5.93;2.47;;;25.60;99.90;;;;;;4969583;28;20059;-87
2022/05/13 09:49:25;;;;;;;9.80;3.05;;;26.20;99.90;;;;;;4974631;28;20159;-86
2022/05/13 09:51:54;;;;;;;4.60;2.40;;;26.80;99.90;;;;;;4977204;28;20468;-87
2022/05/13 09:54:33;;;;;;;4.15;2.65;;;26.50;99.90;;;;;;4965904;28;20051;-87
2022/05/13 09:57:19;;;;;;;7.85;2.33;;;26.00;99.90;;;;;;4973315;28;20035;-86
2022/05/13 10:00:14;;;;;;;5.38;2.65;;;25.60;99.90;;;;;;4987834;28;20058;-88
2022/05/13 10:03:09;;;;;;;5.15;2.78;;;25.20;99.90;;;;;;4967869;29;20105;-87
2022/05/13 10:05:36;;;;;;;8.32;2.60;;;25.70;99.90;;;;;;4966313;29;20126;-87
2022/05/13 10:08:09;;;;;;;2.75;2.50;;;26.30;99.90;;;;;;4971019;29;20340;-87
2022/05/13 10:16:23;;;;;;;6.40;2.83;;;27.40;99.90;;;;;;4966431;29;20094;-88
2022/05/13 10:18:55;;;;;;;7.35;3.17;;;27.50;99.90;;;;;;4967607;28;20031;-88
2022/05/13 10:21:31;;;;;;;4.40;3.25;;;27.20;99.90;;;;;;4967031;29;20028;-90
2022/05/13 10:24:06;;;;;;;7.50;4.20;;;27.20;99.90;;;;;;4970241;29;20050;-87
2022/05/13 10:26:36;;;;;;;5.78;3.33;;;26.70;99.90;;;;;;4971456;28;20059;-87
2022/05/13 10:29:22;;;;;;;7.65;3.17;;;26.70;99.90;;;;;;4975296;28;20039;-88
2022/05/13 10:31:50;;;;;;;7.82;3.60;;;26.70;99.90;;;;;;4970640;29;20042;-88
2022/05/13 10:34:47;;;;;;;9.07;3.45;;;26.60;99.90;;;;;;4973433;28;20035;-87
2022/05/13 10:37:19;;;;;;;4.32;3.35;;;26.20;99.90;;;;;;4970985;28;20047;-86
2022/05/13 10:40:06;;;;;;;4.93;3.42;;;25.80;99.90;;;;;;4965424;29;20423;-89
2022/05/13 10:42:39;;;;;;;7.88;3.67;;;25.60;99.90;;;;;;4965586;28;20070;-86
2022/05/13 10:45:25;;;;;;;12.60;4.00;;;25.60;99.90;;;;;;4966680;28;20027;-88
2022/05/13 10:48:03;;;;;;;5.78;3.97;;;25.30;99.90;;;;;;4965947;28;20031;-88
2022/05/13 10:50:41;;;;;;;5.38;3.60;;;25.40;99.90;;;;;;4967534;28;20042;-87
2022/05/13 10:53:38;;;;;;;6.05;3.80;;;25.70;99.90;;;;;;4974624;28;20019;-87
2022/05/13 10:56:19;;;;;;;8.68;3.50;;;26.00;99.90;;;;;;4974572;28;20121;-87
2022/05/13 10:58:56;;;;;;;9.73;4.05;;;26.40;99.90;;;;;;4967172;29;20067;-88
2022/05/13 11:01:43;;;;;;;8.77;3.95;;;27.10;99.90;;;;;;4969918;28;20121;-87
2022/05/13 11:04:39;;;;;;;4.82;4.05;;;27.90;99.70;;;;;;4968089;28;20027;-86
2022/05/13 11:07:16;;;;;;;9.45;4.20;;;28.10;99.00;;;;;;4967134;29;20039;-87
2022/05/13 11:09:56;;;;;;;8.45;4.25;;;28.20;98.80;;;;;;4967240;28;20058;-85
2022/05/13 11:13:05;;;;;;;7.32;4.00;;;29.00;98.10;;;;;;4967704;28;20074;-86
2022/05/13 11:16:01;;;;;;;6.78;4.25;;;29.00;97.90;;;;;;4967412;28;20463;-86
2022/05/13 11:18:55;;;;;;;7.80;4.28;;;27.90;98.50;;;;;;4967154;28;20110;-87
2022/05/13 11:21:29;;;;;;;5.68;3.75;;;28.00;97.90;;;;;;4968458;29;20110;-88
2022/05/13 11:27:30;;;;;;;12.43;4.20;;;28.10;97.90;;;;;;4973035;29;20114;-86
2022/05/13 11:30:02;;;;;;;6.95;4.10;;;28.50;97.00;;;;;;4965480;28;20054;-87
2022/05/13 11:32:46;;;;;;;5.95;3.80;;;28.60;97.00;;;;;;4974185;29;20035;-88
2022/05/13 11:38:37;;;;;;;4.20;3.13;;;30.50;95.10;;;;;;4994045;28;20069;-88
2022/05/13 11:41:08;;;;;;;6.90;4.20;;;30.10;94.70;;;;;;4995421;28;20086;-85
2022/05/13 11:44:13;;;;;;;6.22;3.97;;;30.10;94.30;;;;;;4995602;28;20082;-85
2022/05/13 11:47:02;;;;;;;5.22;3.53;;;29.30;94.00;;;;;;4986669;28;20051;-84
2022/05/13 11:49:34;;;;;;;8.05;3.42;;;29.70;94.20;;;;;;4996700;28;20087;-88
2022/05/13 11:52:12;;;;;;;6.93;3.00;;;29.70;93.60;;;;;;4993259;28;20062;-85
2022/05/13 11:54:41;;;;;;;10.40;3.65;;;31.20;92.00;;;;;;4987362;28;20019;-85
2022/05/13 11:57:39;;;;;;;5.75;3.15;;;31.00;91.00;;;;;;4997439;28;20051;-86
2022/05/13 12:00:38;;;;;;;5.30;2.80;;;29.50;91.90;;;;;;4993910;28;20019;-86
2022/05/13 12:03:15;;;;;;;6.97;2.55;;;31.00;89.30;;;;;;4992812;28;20039;-88
2022/05/13 12:06:01;;;;;;;5.32;2.30;;;31.30;88.10;;;;;;4988555;28;20038;-85
2022/05/13 12:08:54;;;;;;;4.80;2.47;;;30.60;87.40;;;;;;4989378;28;20485;-86
2022/05/13 12:11:23;;;;;;;5.22;2.88;;;29.90;88.20;;;;;;4993066;28;20041;-84
2022/05/13 12:14:17;;;;;;;3.40;2.38;;;29.50;90.10;;;;;;4996709;28;20022;-86
2022/05/13 12:17:00;;;;;;;3.55;2.70;;;30.70;88.10;;;;;;4995482;28;20069;-87
2022/05/13 12:19:40;;;;;;;3.67;2.20;;;31.80;86.80;;;;;;4996170;28;20059;-85
2022/05/13 12:22:31;;;;;;;5.40;2.35;;;32.10;84.80;;;;;;4984932;28;20050;-85
2022/05/13 12:25:31;;;;;;;6.68;2.53;;;31.20;85.20;;;;;;4994184;28;20102;-85
2022/05/13 12:28:02;;;;;;;4.03;2.80;;;30.60;86.50;;;;;;4974787;28;20042;-83
2022/05/13 12:30:39;;;;;;;7.50;3.00;;;29.40;89.10;;;;;;4997259;28;20082;-84
2022/05/13 12:33:20;;;;;;;4.50;2.85;;;28.80;90.20;;;;;;4996948;28;20043;-84
2022/05/13 12:39:08;;;;;;;8.07;2.90;;;28.50;90.10;;;;;;4995846;28;20091;-87
2022/05/13 12:41:52;;;;;;;9.40;3.13;;;29.60;89.30;;;;;;4995508;28;20035;-86
2022/05/13 12:44:57;;;;;;;5.28;2.50;;;30.30;87.40;;;;;;4995957;28;20038;-85
2022/05/13 12:47:27;;;;;;;3.80;2.17;;;31.50;86.10;;;;;;4990116;28;20054;-86
2022/05/13 12:49:59;;;;;;;5.03;2.17;;;32.50;82.30;;;;;;4984832;28;20090;-87
2022/05/13 12:52:28;;;;;;;3.88;2.40;;;33.20;81.20;;;;;;4983532;28;20046;-87
2022/05/13 12:55:24;;;;;;;3.50;2.45;;;34.90;77.80;;;;;;4987614;28;20031;-87
2022/05/13 12:58:18;;;;;;;3.50;2.47;;;33.00;77.30;;;;;;4980611;28;20140;-87
2022/05/13 13:00:49;;;;;;;3.53;1.98;;;31.70;80.00;;;;;;4986206;28;20050;-86
2022/05/13 13:03:18;;;;;;;4.82;2.75;;;31.10;81.10;;;;;;4994596;28;20031;-85
2022/05/13 13:05:57;;;;;;;5.25;2.50;;;31.00;82.00;;;;;;4988554;28;20027;-85
2022/05/13 13:08:34;;;;;;;4.63;2.53;;;32.20;80.40;;;;;;4988893;28;20034;-85
2022/05/13 13:11:23;;;;;;;4.90;2.63;;;33.30;78.80;;;;;;4987921;28;20023;-86
2022/05/13 13:14:11;;;;;;;6.35;2.40;;;33.70;77.20;;;;;;4990527;28;20034;-83
2022/05/13 13:17:20;;;;;;;5.15;2.63;;;33.00;77.90;;;;;;4991026;28;20031;-87
2022/05/13 13:19:55;;;;;;;2.90;2.53;;;32.00;79.50;;;;;;4983396;28;20047;-86
2022/05/13 13:22:34;;;;;;;5.07;2.60;;;31.30;80.90;;;;;;4989334;28;20035;-86
2022/05/13 13:25:06;;;;;;;2.60;2.20;;;32.70;80.10;;;;;;4988067;28;20027;-85
2022/05/13 13:27:33;;;;;;;2.65;2.25;;;34.10;76.80;;;;;;4987857;28;20038;-87
2022/05/13 13:30:02;;;;;;;3.03;2.38;;;34.50;75.30;;;;;;4986305;28;20027;-87
2022/05/13 13:32:28;;;;;;;5.88;2.53;;;34.70;74.40;;;;;;4994756;28;20078;-86
2022/05/13 13:34:59;;;;;;;6.25;2.35;;;35.20;74.00;;;;;;4992650;28;20047;-87
2022/05/13 13:37:34;;;;;;;5.63;2.50;;;34.70;73.90;;;;;;4992632;28;20023;-86
2022/05/13 13:40:17;;;;;;;7.28;2.58;;;33.80;73.70;;;;;;4990302;28;20292;-85